Terminal Aerodrome Forecast
Issued by NWS Topeka, KS

Home | Current Version | Previous Version | Text Only | Print | Product List | Glossary Off
Versions: 1 2 3 4 5 6 7 8 9 10 11 12 13 14 15 16

000
FTUS43 KTOP 251100
TAFTOP
TAF
KTOP 251121Z 2512/2612 29006KT P6SM SKC
     FM251600 21008KT P6SM FEW200
     FM260000 16008KT P6SM OVC060
     FM260600 25010KT P6SM BKN050=

USA.gov is the U.S. government's official web portal to all federal, state and local government web resources and services.